createdAt,value
2019-01-10T00:04:49.399Z,-0.20
2019-01-10T00:09:51.007Z,0.60
2019-01-10T00:14:52.316Z,-0.20
2019-01-10T00:19:53.408Z,-0.20
2019-01-10T00:24:54.518Z,-0.20
2019-01-10T00:29:55.620Z,-0.20
2019-01-10T00:34:56.832Z,-0.20
2019-01-10T00:39:57.939Z,-0.20
2019-01-10T00:44:59.066Z,-2.70
2019-01-10T00:50:00.169Z,-0.20
2019-01-10T00:55:01.348Z,-0.20
2019-01-10T01:00:09.627Z,-0.20
2019-01-10T01:05:12.719Z,-0.20
2019-01-10T01:10:16.625Z,-0.20
2019-01-10T01:15:17.907Z,-0.20
2019-01-10T01:20:21.231Z,-0.20
2019-01-10T01:25:22.484Z,0.10
2019-01-10T01:30:24.388Z,-0.20
2019-01-10T01:35:25.503Z,-0.20
2019-01-10T01:40:26.607Z,-0.20
2019-01-10T01:45:27.702Z,-0.10
2019-01-10T01:50:28.795Z,-0.10
2019-01-10T01:55:29.879Z,-0.20
2019-01-10T02:00:31.299Z,0.40
2019-01-10T02:05:32.402Z,-0.20
2019-01-10T02:10:33.487Z,-0.20
2019-01-10T02:15:34.591Z,-0.20
2019-01-10T02:20:35.679Z,-0.20
2019-01-10T02:25:36.778Z,-0.20
2019-01-10T02:30:42.093Z,-0.10
2019-01-10T02:35:40.915Z,-0.20
2019-01-10T02:40:42.081Z,-0.20
2019-01-10T02:45:43.191Z,-0.20
2019-01-10T02:50:44.282Z,-0.20
2019-01-10T02:55:45.383Z,-0.20
2019-01-10T03:00:46.493Z,-0.20
2019-01-10T03:05:47.989Z,-0.20
2019-01-10T03:10:49.090Z,-0.20
2019-01-10T03:15:50.280Z,-0.20
2019-01-10T03:20:52.725Z,-0.20
2019-01-10T03:25:53.895Z,-0.20
2019-01-10T03:30:54.952Z,-0.20
2019-01-10T03:35:56.181Z,-0.20
2019-01-10T03:40:57.288Z,-0.20
2019-01-10T03:45:58.385Z,-0.20
2019-01-10T03:50:59.498Z,-0.20
2019-01-10T03:56:00.806Z,-0.20
2019-01-10T04:01:02.091Z,0.30
2019-01-10T04:06:03.458Z,-0.10
2019-01-10T04:11:04.767Z,-0.20
2019-01-10T04:16:05.867Z,-0.20
2019-01-10T04:21:16.706Z,-0.10
2019-01-10T04:26:09.950Z,-0.10
2019-01-10T04:31:11.045Z,-0.10
2019-01-10T04:36:12.158Z,-0.10
2019-01-10T04:41:13.240Z,-0.10
2019-01-10T04:46:14.351Z,-0.10
2019-01-10T04:51:15.547Z,-0.10
2019-01-10T04:56:16.642Z,-0.10
2019-01-10T05:01:17.755Z,-0.10
2019-01-10T05:06:18.950Z,-0.10
2019-01-10T05:11:20.064Z,-0.10
2019-01-10T05:16:21.184Z,0.00
2019-01-10T05:21:22.294Z,0.00
2019-01-10T05:26:23.367Z,0.00
2019-01-10T05:31:24.464Z,-1.90
2019-01-10T05:36:25.556Z,0.00
2019-01-10T05:41:26.658Z,0.00
2019-01-10T05:46:27.757Z,0.00
2019-01-10T05:51:28.854Z,0.00
2019-01-10T05:56:29.952Z,0.00
2019-01-10T06:01:31.059Z,0.00
2019-01-10T06:06:32.167Z,0.00
2019-01-10T06:11:33.357Z,0.00
2019-01-10T06:16:34.542Z,0.00
2019-01-10T06:21:35.658Z,0.10
2019-01-10T06:26:36.755Z,0.00
2019-01-10T06:31:37.851Z,0.10
2019-01-10T06:36:38.964Z,0.10
2019-01-10T06:41:40.058Z,0.10
2019-01-10T06:46:41.162Z,0.40
2019-01-10T06:51:42.251Z,0.50
2019-01-10T06:56:44.544Z,0.10
2019-01-10T07:01:45.874Z,0.10
2019-01-10T07:06:46.971Z,1.20
2019-01-10T07:11:48.076Z,0.10
2019-01-10T07:16:53.640Z,0.30
2019-01-10T07:21:55.123Z,0.10
2019-01-10T07:26:56.728Z,0.10
2019-01-10T07:31:58.015Z,0.10
2019-01-10T07:36:59.226Z,0.20
2019-01-10T07:42:00.333Z,0.20
2019-01-10T07:47:01.451Z,0.30
2019-01-10T07:52:02.743Z,0.30
2019-01-10T07:57:04.284Z,0.30
2019-01-10T08:02:05.347Z,1.40
2019-01-10T08:07:06.446Z,0.40
2019-01-10T08:12:07.537Z,0.40
2019-01-10T08:17:15.916Z,0.80
2019-01-10T08:22:11.635Z,0.40
2019-01-10T08:27:12.734Z,0.50
2019-01-10T08:32:13.831Z,0.50
2019-01-10T08:37:14.951Z,0.50
2019-01-10T08:42:16.147Z,0.60
2019-01-10T08:47:17.238Z,0.60
2019-01-10T08:52:18.439Z,0.60
2019-01-10T08:57:19.559Z,0.70
2019-01-10T09:02:20.659Z,1.00
2019-01-10T09:07:21.748Z,0.70
2019-01-10T09:12:22.876Z,0.70
2019-01-10T09:17:23.972Z,0.70
2019-01-10T09:27:40.184Z,0.80
2019-01-10T09:32:41.317Z,0.90
2019-01-10T09:37:42.504Z,0.90
2019-01-10T09:42:43.794Z,1.00
2019-01-10T09:47:45.121Z,2.30
2019-01-10T09:52:46.442Z,1.20
2019-01-10T09:57:47.574Z,1.20
2019-01-10T10:02:48.676Z,1.30
2019-01-10T10:07:49.880Z,1.30
2019-01-10T10:12:51.223Z,1.30
2019-01-10T10:17:52.338Z,1.30
2019-01-10T10:22:53.632Z,1.50
2019-01-10T10:27:54.752Z,1.40
2019-01-10T10:32:55.842Z,1.40
2019-01-10T10:37:57.040Z,1.30
2019-01-10T10:42:58.139Z,1.30
2019-01-10T10:47:59.255Z,1.40
2019-01-10T10:53:02.359Z,1.30
2019-01-10T10:58:03.967Z,1.20
2019-01-10T11:03:05.183Z,1.30
2019-01-10T11:08:06.379Z,1.30
2019-01-10T11:13:07.471Z,1.30
2019-01-10T11:18:08.891Z,1.30
2019-01-10T11:23:11.022Z,1.20
2019-01-10T11:28:12.299Z,1.30
2019-01-10T11:33:13.399Z,1.30
2019-01-10T11:38:14.509Z,1.30
2019-01-10T11:43:15.606Z,1.40
2019-01-10T11:48:16.733Z,1.40
2019-01-10T11:53:17.827Z,1.40
2019-01-10T11:58:18.930Z,1.50
2019-01-10T12:03:20.138Z,1.50
2019-01-10T12:08:21.244Z,1.60
2019-01-10T12:13:22.331Z,1.70
2019-01-10T12:18:23.727Z,2.90
2019-01-10T12:23:24.823Z,1.90
2019-01-10T12:28:26.725Z,1.90
2019-01-10T12:33:27.929Z,2.00
2019-01-10T12:38:29.031Z,2.00
2019-01-10T12:43:30.131Z,1.90
2019-01-10T12:48:31.256Z,2.30
2019-01-10T12:53:32.370Z,2.00
2019-01-10T12:58:33.467Z,1.90
2019-01-10T13:03:34.679Z,1.80
2019-01-10T13:08:35.771Z,1.80
2019-01-10T13:13:36.866Z,1.70
2019-01-10T13:18:37.983Z,1.60
2019-01-10T13:23:39.102Z,1.80
2019-01-10T13:28:40.215Z,1.90
2019-01-10T13:33:41.328Z,2.00
2019-01-10T13:38:42.624Z,2.10
2019-01-10T13:43:43.892Z,2.20
2019-01-10T13:48:51.348Z,2.60
2019-01-10T13:53:48.006Z,1.90
2019-01-10T13:58:49.112Z,1.90
2019-01-10T14:03:50.242Z,1.90
2019-01-10T14:08:51.658Z,1.90
2019-01-10T14:13:52.757Z,2.80
2019-01-10T14:18:53.854Z,1.80
2019-01-10T14:23:54.955Z,1.80
2019-01-10T14:28:57.336Z,1.80
2019-01-10T14:33:58.577Z,1.70
2019-01-10T14:38:59.787Z,1.60
2019-01-10T14:44:00.993Z,1.40
2019-01-10T14:49:02.194Z,1.30
2019-01-10T14:54:03.396Z,1.20
2019-01-10T14:59:04.594Z,1.00
2019-01-10T15:04:05.698Z,0.90
2019-01-10T15:09:06.895Z,0.80
2019-01-10T15:14:08.106Z,0.80
2019-01-10T15:19:09.215Z,0.80
2019-01-10T15:24:10.331Z,0.80
2019-01-10T15:29:11.451Z,0.70
2019-01-10T15:34:12.672Z,0.70
2019-01-10T15:39:13.786Z,0.70
2019-01-10T15:44:14.855Z,0.60
2019-01-10T15:49:15.951Z,0.60
2019-01-10T15:54:17.076Z,0.60
2019-01-10T15:59:18.187Z,0.90
2019-01-10T16:04:19.405Z,0.60
2019-01-10T16:09:20.550Z,0.50
2019-01-10T16:14:21.752Z,0.50
2019-01-10T16:19:22.935Z,0.50
2019-01-10T16:24:24.066Z,0.50
2019-01-10T16:29:25.202Z,0.50
2019-01-10T16:34:26.348Z,0.50
2019-01-10T16:39:27.453Z,0.40
2019-01-10T16:44:28.578Z,0.40
2019-01-10T16:49:29.779Z,0.40
2019-01-10T16:54:30.879Z,0.40
2019-01-10T16:59:31.980Z,0.40
2019-01-10T17:04:33.083Z,0.40
2019-01-10T17:09:34.202Z,0.80
2019-01-10T17:14:35.407Z,0.40
2019-01-10T17:19:36.499Z,0.70
2019-01-10T17:24:37.610Z,0.40
2019-01-10T17:29:38.703Z,0.30
2019-01-10T17:34:39.829Z,0.30
2019-01-10T17:39:40.963Z,0.30
2019-01-10T17:44:42.068Z,0.30
2019-01-10T17:49:43.177Z,0.30
2019-01-10T17:54:44.278Z,0.30
2019-01-10T17:59:45.363Z,0.30
2019-01-10T18:04:47.680Z,0.30
2019-01-10T18:09:48.819Z,0.50
2019-01-10T18:14:49.932Z,0.30
2019-01-10T18:19:51.063Z,0.20
2019-01-10T18:24:52.168Z,0.30
2019-01-10T18:29:53.297Z,0.20
2019-01-10T18:34:54.551Z,0.20
2019-01-10T18:39:55.699Z,0.30
2019-01-10T18:44:56.823Z,0.70
2019-01-10T18:49:58.032Z,0.20
2019-01-10T18:55:00.353Z,0.20
2019-01-10T19:00:04.534Z,0.20
2019-01-10T19:05:06.127Z,0.20
2019-01-10T19:10:11.049Z,0.30
2019-01-10T19:15:12.412Z,0.20
2019-01-10T19:20:25.093Z,0.20
2019-01-10T19:25:26.266Z,0.20
2019-01-10T19:30:28.904Z,0.50
2019-01-10T19:35:30.158Z,0.60
2019-01-10T19:40:31.368Z,0.10
2019-01-10T19:45:32.635Z,0.10
2019-01-10T19:50:33.884Z,1.20
2019-01-10T19:55:35.000Z,0.10
2019-01-10T20:00:37.147Z,1.40
2019-01-10T20:05:38.536Z,0.10
2019-01-10T20:10:39.787Z,0.30
2019-01-10T20:15:40.984Z,0.10
2019-01-10T20:20:42.108Z,0.10
2019-01-10T20:25:45.281Z,0.60
2019-01-10T20:30:46.804Z,0.10
2019-01-10T20:35:48.104Z,0.10
2019-01-10T20:40:49.846Z,0.00
2019-01-10T20:45:51.183Z,0.00
2019-01-10T20:50:52.280Z,1.00
2019-01-10T20:55:53.494Z,-0.20
2019-01-10T21:00:54.605Z,-0.30
2019-01-10T21:05:56.015Z,-0.10
2019-01-10T21:10:57.621Z,-0.30
2019-01-10T21:15:58.733Z,-0.30
2019-01-10T21:20:59.855Z,-0.30
2019-01-10T21:26:00.975Z,-0.30
2019-01-10T21:31:02.343Z,-0.40
2019-01-10T21:36:03.706Z,-0.40
2019-01-10T21:41:04.911Z,-0.40
2019-01-10T21:46:06.220Z,-0.40
2019-01-10T21:51:07.419Z,-0.40
2019-01-10T21:56:09.799Z,-0.50
2019-01-10T22:01:10.903Z,-0.50
2019-01-10T22:06:12.024Z,-0.40
2019-01-10T22:11:13.124Z,-0.50
2019-01-10T22:16:14.331Z,-0.50
2019-01-10T22:21:15.424Z,-0.50
2019-01-10T22:26:16.544Z,-0.50
2019-01-10T22:31:17.697Z,-0.40
2019-01-10T22:36:18.796Z,-0.50
2019-01-10T22:41:19.907Z,-0.50
2019-01-10T22:46:21.273Z,-0.50
2019-01-10T22:51:22.479Z,-0.50
2019-01-10T22:56:23.576Z,-0.50
2019-01-10T23:01:28.219Z,-0.60
2019-01-10T23:06:29.387Z,-0.60
2019-01-10T23:11:30.479Z,-0.70
2019-01-10T23:16:31.971Z,-0.80
2019-01-10T23:21:33.581Z,-0.80
2019-01-10T23:26:34.978Z,-0.80
2019-01-10T23:31:36.290Z,-0.80
2019-01-10T23:36:37.643Z,-0.90
2019-01-10T23:41:38.719Z,-0.80
2019-01-10T23:46:39.932Z,-0.80
2019-01-10T23:51:41.324Z,-0.80
2019-01-10T23:56:42.515Z,-0.90
